createdAt,value
2022-10-12T00:02:09.099Z,6.03
2022-10-12T00:04:38.152Z,6.06
2022-10-12T00:07:07.026Z,6.08
2022-10-12T00:09:35.952Z,6.09
2022-10-12T00:12:05.007Z,6.10
2022-10-12T00:14:37.721Z,6.06
2022-10-12T00:17:06.675Z,6.05
2022-10-12T00:19:35.635Z,6.08
2022-10-12T00:22:04.827Z,6.09
2022-10-12T00:24:33.996Z,6.08
2022-10-12T00:27:02.894Z,6.09
2022-10-12T00:29:31.816Z,6.09
2022-10-12T00:32:01.784Z,6.09
2022-10-12T00:34:32.782Z,6.08
2022-10-12T00:37:01.803Z,6.06
2022-10-12T00:39:30.657Z,6.01
2022-10-12T00:42:02.172Z,6.01
2022-10-12T00:44:39.658Z,5.99
2022-10-12T00:47:35.631Z,5.97
2022-10-12T00:50:31.024Z,5.96
2022-10-12T00:53:23.289Z,5.96
2022-10-12T00:56:00.310Z,5.95
2022-10-12T00:58:33.070Z,5.94
2022-10-12T01:01:05.398Z,5.92
2022-10-12T01:03:35.879Z,5.91
2022-10-12T01:06:07.430Z,5.92
2022-10-12T01:08:37.855Z,5.94
2022-10-12T01:11:06.997Z,5.96
2022-10-12T01:13:36.600Z,5.98
2022-10-12T01:16:38.104Z,5.98
2022-10-12T01:19:24.423Z,5.96
2022-10-12T01:22:10.396Z,5.94
2022-10-12T01:25:09.108Z,5.92
2022-10-12T01:27:47.913Z,5.91
2022-10-12T01:30:38.890Z,5.90
2022-10-12T01:33:34.496Z,5.89
2022-10-12T01:36:37.324Z,5.88
2022-10-12T01:39:35.903Z,5.85
2022-10-12T01:42:14.161Z,5.80
2022-10-12T01:44:43.938Z,5.76
2022-10-12T01:47:15.505Z,5.74
2022-10-12T01:49:44.585Z,5.71
2022-10-12T01:52:17.234Z,5.69
2022-10-12T01:55:00.567Z,5.66
2022-10-12T01:57:47.849Z,5.62
2022-10-12T02:00:18.043Z,5.60
2022-10-12T02:03:07.352Z,5.59
2022-10-12T02:05:49.483Z,5.56
2022-10-12T02:08:48.087Z,5.54
2022-10-12T02:11:23.234Z,5.53
2022-10-12T02:14:16.889Z,5.54
2022-10-12T02:17:00.767Z,5.52
2022-10-12T02:19:36.808Z,5.49
2022-10-12T02:22:13.689Z,5.46
2022-10-12T02:24:50.443Z,5.39
2022-10-12T02:27:25.352Z,5.34
2022-10-12T02:29:54.766Z,5.29
2022-10-12T02:32:40.201Z,5.27
2022-10-12T02:35:22.771Z,5.15
2022-10-12T02:38:19.931Z,5.11
2022-10-12T02:40:57.097Z,5.05
2022-10-12T02:43:37.252Z,4.98
2022-10-12T02:46:10.243Z,4.90
2022-10-12T02:48:41.930Z,4.87
2022-10-12T02:51:31.267Z,4.89
2022-10-12T02:54:32.671Z,4.90
2022-10-12T02:57:24.345Z,4.93
2022-10-12T03:00:02.287Z,4.94
2022-10-12T03:02:41.569Z,4.97
2022-10-12T03:05:14.669Z,4.98
2022-10-12T03:07:45.994Z,4.93
2022-10-12T03:10:17.170Z,4.82
2022-10-12T03:12:50.228Z,4.66
2022-10-12T03:15:19.550Z,4.56
2022-10-12T03:17:53.800Z,4.53
2022-10-12T03:20:25.304Z,4.52
2022-10-12T03:22:55.517Z,4.50
2022-10-12T03:25:24.792Z,4.48
2022-10-12T03:27:55.867Z,4.51
2022-10-12T03:30:24.967Z,4.54
2022-10-12T03:32:53.953Z,4.56
2022-10-12T03:35:23.236Z,4.55
2022-10-12T03:37:54.932Z,4.56
2022-10-12T03:40:24.054Z,4.57
2022-10-12T03:42:54.193Z,4.60
2022-10-12T03:45:25.994Z,4.62
2022-10-12T03:48:01.041Z,4.63
2022-10-12T03:50:36.284Z,4.62
2022-10-12T03:53:06.495Z,4.59
2022-10-12T03:55:35.620Z,4.58
2022-10-12T03:58:04.517Z,4.58
2022-10-12T04:00:33.605Z,4.60
2022-10-12T04:03:03.268Z,4.63
2022-10-12T04:05:32.806Z,4.64
2022-10-12T04:08:02.365Z,4.63
2022-10-12T04:10:33.024Z,4.62
2022-10-12T04:13:01.930Z,4.62
2022-10-12T04:15:30.863Z,4.61
2022-10-12T04:18:00.047Z,4.61
2022-10-12T04:20:28.972Z,4.59
2022-10-12T04:23:01.060Z,4.55
2022-10-12T04:25:32.768Z,4.48
2022-10-12T04:28:01.804Z,4.41
2022-10-12T04:30:30.955Z,4.41
2022-10-12T04:33:00.093Z,4.43
2022-10-12T04:35:29.160Z,4.43
2022-10-12T04:37:59.456Z,4.43
2022-10-12T04:40:28.568Z,4.43
2022-10-12T04:42:57.559Z,4.44
2022-10-12T04:45:26.370Z,4.45
2022-10-12T04:47:55.254Z,4.48
2022-10-12T04:50:29.710Z,4.49
2022-10-12T04:52:59.075Z,4.47
2022-10-12T04:55:28.181Z,4.38
2022-10-12T04:57:57.258Z,4.26
2022-10-12T05:00:26.430Z,4.17
2022-10-12T05:02:56.439Z,4.11
2022-10-12T05:05:28.383Z,4.07
2022-10-12T05:08:02.701Z,4.03
2022-10-12T05:10:35.298Z,4.00
2022-10-12T05:13:07.666Z,4.02
2022-10-12T05:15:36.636Z,4.04
2022-10-12T05:18:05.834Z,4.04
2022-10-12T05:20:35.246Z,4.00
2022-10-12T05:23:05.021Z,3.94
2022-10-12T05:25:35.473Z,3.87
2022-10-12T05:28:04.951Z,3.83
2022-10-12T05:30:34.551Z,3.80
2022-10-12T05:33:03.906Z,3.79
2022-10-12T05:35:32.910Z,3.82
2022-10-12T05:38:01.733Z,3.86
2022-10-12T05:40:30.662Z,3.85
2022-10-12T05:42:59.623Z,3.81
2022-10-12T05:45:28.577Z,3.81
2022-10-12T05:48:01.865Z,3.80
2022-10-12T05:50:32.314Z,3.75
2022-10-12T05:53:01.241Z,3.67
2022-10-12T05:55:30.139Z,3.63
2022-10-12T05:57:59.519Z,3.64
2022-10-12T06:00:34.825Z,3.62
2022-10-12T06:03:08.702Z,3.61
2022-10-12T06:05:43.232Z,3.65
2022-10-12T06:08:13.038Z,3.72
2022-10-12T06:10:47.455Z,3.75
2022-10-12T06:13:18.111Z,3.76
2022-10-12T06:15:48.273Z,3.79
2022-10-12T06:18:18.849Z,3.84
2022-10-12T06:21:08.815Z,3.88
2022-10-12T06:23:41.793Z,3.96
2022-10-12T06:26:17.521Z,4.07
2022-10-12T06:28:48.068Z,4.19
2022-10-12T06:31:17.319Z,4.28
2022-10-12T06:33:51.122Z,4.38
2022-10-12T06:36:20.910Z,4.49
2022-10-12T06:38:49.921Z,4.61
2022-10-12T06:41:21.307Z,4.75
2022-10-12T06:43:50.309Z,4.89
2022-10-12T06:46:28.130Z,5.03
2022-10-12T06:49:11.553Z,5.18
2022-10-12T06:51:45.247Z,5.34
2022-10-12T06:54:17.332Z,5.48
2022-10-12T06:57:23.301Z,5.61
2022-10-12T06:59:57.128Z,5.79
2022-10-12T07:02:26.422Z,6.00
2022-10-12T07:04:55.741Z,6.24
2022-10-12T07:07:24.907Z,6.48
2022-10-12T07:09:53.802Z,6.75
2022-10-12T07:12:22.640Z,7.04
2022-10-12T07:14:51.598Z,7.39
2022-10-12T07:17:22.600Z,7.87
2022-10-12T07:19:51.360Z,8.40
2022-10-12T07:22:20.212Z,8.90
2022-10-12T07:24:51.704Z,9.25
2022-10-12T07:27:21.722Z,9.66
2022-10-12T07:29:54.119Z,10.13
2022-10-12T07:32:23.287Z,10.57
2022-10-12T07:34:55.137Z,10.90
2022-10-12T07:37:24.058Z,11.17
2022-10-12T07:39:57.507Z,11.38
2022-10-12T07:42:26.810Z,11.61
2022-10-12T07:44:56.189Z,11.89
2022-10-12T07:47:25.100Z,12.20
2022-10-12T07:49:54.103Z,12.46
2022-10-12T07:52:32.616Z,12.79
2022-10-12T07:55:13.566Z,13.05
2022-10-12T07:57:50.813Z,13.25
2022-10-12T08:00:23.452Z,13.35
2022-10-12T08:03:01.156Z,13.47
2022-10-12T08:05:43.938Z,13.60
2022-10-12T08:08:27.387Z,13.88
2022-10-12T08:11:06.808Z,14.17
2022-10-12T08:13:53.493Z,14.35
2022-10-12T08:16:35.812Z,14.52
2022-10-12T08:19:12.105Z,14.67
2022-10-12T08:21:42.962Z,14.82
2022-10-12T08:24:35.716Z,14.87
2022-10-12T08:27:17.563Z,14.93
2022-10-12T08:29:58.945Z,14.91
2022-10-12T08:32:34.886Z,14.89
2022-10-12T08:35:47.844Z,15.04
2022-10-12T08:38:26.682Z,15.27
2022-10-12T08:41:42.023Z,15.46
2022-10-12T08:44:28.064Z,15.45
2022-10-12T08:47:22.028Z,15.30
2022-10-12T08:49:51.251Z,15.09
2022-10-12T08:52:49.207Z,14.90
2022-10-12T08:55:53.624Z,14.87
2022-10-12T08:58:35.724Z,14.80
2022-10-12T09:01:37.451Z,14.78
2022-10-12T09:05:02.774Z,14.75
2022-10-12T09:07:39.770Z,14.73
2022-10-12T09:10:45.848Z,14.70
2022-10-12T09:13:42.882Z,14.62
2022-10-12T09:16:27.740Z,14.65
2022-10-12T09:19:13.475Z,14.68
2022-10-12T09:21:44.662Z,14.77
2022-10-12T09:24:27.855Z,14.93
2022-10-12T09:27:14.665Z,15.08
2022-10-12T09:30:00.392Z,15.20
2022-10-12T09:32:41.205Z,15.33
2022-10-12T09:35:14.823Z,15.39
2022-10-12T09:37:55.079Z,15.49
2022-10-12T09:40:34.312Z,15.55
2022-10-12T09:43:25.191Z,15.71
2022-10-12T09:45:54.577Z,15.94
2022-10-12T09:48:33.002Z,16.17
2022-10-12T09:51:06.961Z,16.51
2022-10-12T09:53:55.327Z,16.85
2022-10-12T09:56:34.926Z,17.19
2022-10-12T09:59:32.634Z,17.53
2022-10-12T10:02:10.932Z,17.85
2022-10-12T10:04:55.384Z,18.11
2022-10-12T10:07:38.562Z,18.40
2022-10-12T10:10:12.157Z,18.70
2022-10-12T10:12:59.745Z,18.95
2022-10-12T10:15:30.287Z,19.18
2022-10-12T10:18:03.766Z,19.31
2022-10-12T10:20:49.811Z,19.40
2022-10-12T10:23:46.444Z,19.40
2022-10-12T10:26:23.323Z,19.53
2022-10-12T10:29:32.708Z,19.61
2022-10-12T10:32:29.195Z,19.76
2022-10-12T10:35:18.002Z,19.97
2022-10-12T10:37:57.778Z,20.22
2022-10-12T10:40:30.961Z,20.61
2022-10-12T10:43:15.893Z,20.77
2022-10-12T10:46:02.653Z,20.81
2022-10-12T10:49:06.424Z,21.02
2022-10-12T10:51:51.781Z,21.24
2022-10-12T10:54:23.789Z,21.26
2022-10-12T10:56:59.240Z,21.22
2022-10-12T11:00:33.457Z,21.03
2022-10-12T11:03:31.236Z,20.55
2022-10-12T11:06:20.960Z,19.96
2022-10-12T11:08:56.356Z,19.27
2022-10-12T11:11:33.118Z,18.63
2022-10-12T11:14:21.919Z,18.19
2022-10-12T11:17:08.386Z,17.78
2022-10-12T11:20:19.890Z,17.38
2022-10-12T11:23:04.817Z,17.03
2022-10-12T11:25:49.048Z,16.89
2022-10-12T11:28:21.602Z,16.84
2022-10-12T11:30:53.463Z,16.74
2022-10-12T11:33:39.880Z,16.66
2022-10-12T11:36:20.325Z,16.53
2022-10-12T11:39:05.844Z,16.47
2022-10-12T11:42:17.044Z,16.44
2022-10-12T11:44:47.882Z,16.40
2022-10-12T11:47:47.433Z,16.37
2022-10-12T11:50:36.405Z,16.31
2022-10-12T11:53:41.341Z,16.29
2022-10-12T11:56:32.860Z,16.26
2022-10-12T11:59:27.238Z,16.27
2022-10-12T12:02:25.543Z,16.22
2022-10-12T12:04:56.910Z,16.23
2022-10-12T12:07:54.602Z,16.24
2022-10-12T12:15:02.237Z,16.14
2022-10-12T12:17:45.488Z,16.10
2022-10-12T12:20:48.577Z,16.06
2022-10-12T12:23:32.205Z,15.99
2022-10-12T12:26:16.881Z,15.96
2022-10-12T12:28:51.841Z,15.89
2022-10-12T12:31:25.567Z,15.89
2022-10-12T12:34:15.665Z,15.94
2022-10-12T12:36:51.767Z,15.97
2022-10-12T12:39:33.468Z,16.00
2022-10-12T12:42:09.160Z,16.04
2022-10-12T12:44:54.881Z,16.02
2022-10-12T12:47:46.865Z,16.00
2022-10-12T12:50:40.171Z,16.04
2022-10-12T12:53:29.393Z,15.97
2022-10-12T12:56:36.309Z,15.84
2022-10-12T12:59:42.838Z,15.81
2022-10-12T13:03:10.072Z,15.75
2022-10-12T13:06:04.456Z,15.59
2022-10-12T13:09:14.682Z,15.57
2022-10-12T13:12:17.615Z,15.56
2022-10-12T13:15:24.949Z,15.42
2022-10-12T13:18:48.817Z,15.30
2022-10-12T13:21:26.873Z,15.30
2022-10-12T13:24:19.682Z,15.33
2022-10-12T13:26:54.926Z,15.29
2022-10-12T13:29:44.839Z,15.26
2022-10-12T13:32:44.440Z,15.21
2022-10-12T13:35:33.869Z,15.13
2022-10-12T13:38:14.168Z,15.12
2022-10-12T13:40:53.550Z,15.09
2022-10-12T13:43:48.838Z,15.04
2022-10-12T13:46:46.776Z,15.02
2022-10-12T13:49:19.913Z,14.95
2022-10-12T13:52:21.944Z,14.93
2022-10-12T13:54:51.312Z,14.86
2022-10-12T13:57:43.676Z,14.80
2022-10-12T14:00:16.984Z,14.79
2022-10-12T14:03:03.731Z,14.77
2022-10-12T14:05:42.407Z,14.73
2022-10-12T14:08:19.559Z,14.69
2022-10-12T14:10:49.711Z,14.67
2022-10-12T14:13:37.303Z,14.68
2022-10-12T14:16:10.175Z,14.69
2022-10-12T14:18:47.453Z,14.70
2022-10-12T14:21:32.081Z,14.68
2022-10-12T14:24:10.670Z,14.64
2022-10-12T14:26:51.975Z,14.63
2022-10-12T14:29:42.113Z,14.64
2022-10-12T14:32:13.558Z,14.65
2022-10-12T14:35:19.009Z,14.64
2022-10-12T14:37:49.742Z,14.58
2022-10-12T14:40:42.077Z,14.57
2022-10-12T14:43:14.236Z,14.57
2022-10-12T14:45:43.211Z,14.57
2022-10-12T14:48:24.789Z,14.56
2022-10-12T14:50:54.562Z,14.53
2022-10-12T14:53:31.789Z,14.51
2022-10-12T14:56:00.750Z,14.48
2022-10-12T14:58:29.998Z,14.47
2022-10-12T15:00:59.034Z,14.46
2022-10-12T15:03:28.191Z,14.46
2022-10-12T15:05:57.176Z,14.44
2022-10-12T15:08:26.022Z,14.40
2022-10-12T15:10:54.855Z,14.36
2022-10-12T15:13:23.694Z,14.33
2022-10-12T15:15:55.773Z,14.29
2022-10-12T15:18:29.353Z,14.25
2022-10-12T15:20:59.733Z,14.20
2022-10-12T15:23:32.706Z,14.17
2022-10-12T15:26:02.078Z,14.05
2022-10-12T15:28:31.094Z,14.04
2022-10-12T15:31:17.158Z,14.03
2022-10-12T15:33:47.121Z,14.00
2022-10-12T15:36:17.599Z,13.99
2022-10-12T15:38:48.300Z,13.96
2022-10-12T15:41:20.858Z,13.95
2022-10-12T15:43:50.298Z,13.90
2022-10-12T15:46:23.920Z,13.84
2022-10-12T15:48:54.015Z,13.80
2022-10-12T15:51:25.430Z,13.74
2022-10-12T15:53:55.249Z,13.69
2022-10-12T15:56:24.381Z,13.63
2022-10-12T15:58:54.033Z,13.57
2022-10-12T16:01:23.127Z,13.52
2022-10-12T16:03:53.789Z,13.46
2022-10-12T16:06:23.286Z,13.40
2022-10-12T16:08:52.286Z,13.35
2022-10-12T16:11:23.216Z,13.28
2022-10-12T16:13:56.524Z,13.21
2022-10-12T16:16:25.882Z,13.13
2022-10-12T16:18:54.759Z,13.04
2022-10-12T16:21:29.912Z,12.99
2022-10-12T16:24:02.504Z,12.93
2022-10-12T16:26:47.850Z,12.88
2022-10-12T16:29:23.917Z,12.79
2022-10-12T16:32:02.266Z,12.69
2022-10-12T16:34:44.586Z,12.60
2022-10-12T16:37:17.759Z,12.49
2022-10-12T16:39:52.692Z,12.41
2022-10-12T16:42:23.642Z,12.34
2022-10-12T16:44:53.225Z,12.24
2022-10-12T16:47:33.291Z,12.21
2022-10-12T16:50:03.020Z,12.13
2022-10-12T16:52:35.409Z,12.10
2022-10-12T16:55:09.123Z,12.04
2022-10-12T16:57:40.550Z,11.97
2022-10-12T17:00:20.344Z,11.88
2022-10-12T17:03:11.782Z,11.77
2022-10-12T17:06:10.631Z,11.71
2022-10-12T17:08:47.157Z,11.63
2022-10-12T17:11:18.419Z,11.58
2022-10-12T17:13:52.553Z,11.54
2022-10-12T17:16:41.107Z,11.47
2022-10-12T17:20:09.636Z,11.36
2022-10-12T17:23:19.914Z,11.15
2022-10-12T17:26:07.142Z,11.04
2022-10-12T17:28:49.260Z,10.94
2022-10-12T17:31:30.821Z,10.86
2022-10-12T17:37:26.073Z,10.74
2022-10-12T17:40:50.197Z,10.65
2022-10-12T17:47:59.740Z,10.40
2022-10-12T17:56:01.617Z,10.18
2022-10-12T17:58:33.025Z,10.05
2022-10-12T18:01:33.367Z,10.03
2022-10-12T18:04:04.317Z,10.02
2022-10-12T18:06:34.825Z,10.01
2022-10-12T18:09:06.160Z,9.99
2022-10-12T18:11:36.012Z,9.95
2022-10-12T18:14:08.981Z,9.90
2022-10-12T18:16:37.989Z,9.85
2022-10-12T18:19:12.040Z,9.80
2022-10-12T18:21:40.885Z,9.76
2022-10-12T18:24:16.456Z,9.71
2022-10-12T18:26:47.544Z,9.67
2022-10-12T18:29:19.297Z,9.63
2022-10-12T18:31:48.113Z,9.61
2022-10-12T18:34:16.914Z,9.59
2022-10-12T18:36:45.806Z,9.58
2022-10-12T18:39:15.324Z,9.55
2022-10-12T18:41:44.137Z,9.51
2022-10-12T18:44:15.054Z,9.47
2022-10-12T18:46:44.474Z,9.40
2022-10-12T18:49:14.148Z,9.33
2022-10-12T18:51:47.450Z,9.28
2022-10-12T18:54:17.231Z,9.23
2022-10-12T18:56:46.017Z,9.19
2022-10-12T18:59:19.465Z,9.17
2022-10-12T19:01:48.213Z,9.15
2022-10-12T19:04:17.135Z,9.12
2022-10-12T19:06:45.847Z,9.08
2022-10-12T19:09:14.842Z,9.05
2022-10-12T19:11:43.623Z,9.01
2022-10-12T19:14:15.087Z,8.97
2022-10-12T19:16:44.634Z,8.92
2022-10-12T19:19:20.919Z,8.89
2022-10-12T19:21:52.374Z,8.84
2022-10-12T19:24:22.114Z,8.81
2022-10-12T19:26:51.532Z,8.79
2022-10-12T19:29:20.312Z,8.79
2022-10-12T19:31:50.572Z,8.80
2022-10-12T19:34:21.262Z,8.78
2022-10-12T19:36:50.742Z,8.76
2022-10-12T19:39:23.101Z,8.74
2022-10-12T19:41:52.677Z,8.71
2022-10-12T19:44:21.657Z,8.70
2022-10-12T19:46:53.555Z,8.66
2022-10-12T19:49:22.367Z,8.62
2022-10-12T19:51:51.158Z,8.59
2022-10-12T19:54:20.438Z,8.55
2022-10-12T19:56:49.701Z,8.51
2022-10-12T19:59:18.445Z,8.45
2022-10-12T20:01:48.337Z,8.42
2022-10-12T20:04:17.703Z,8.41
2022-10-12T20:06:46.524Z,8.40
2022-10-12T20:09:15.458Z,8.38
2022-10-12T20:11:44.298Z,8.36
2022-10-12T20:14:13.180Z,8.34
2022-10-12T20:16:41.969Z,8.32
2022-10-12T20:19:10.745Z,8.27
2022-10-12T20:21:39.539Z,8.24
2022-10-12T20:24:09.871Z,8.21
2022-10-12T20:26:39.015Z,8.18
2022-10-12T20:29:07.950Z,8.12
2022-10-12T20:31:36.866Z,8.07
2022-10-12T20:34:06.709Z,8.02
2022-10-12T20:36:35.591Z,7.96
2022-10-12T20:39:04.393Z,7.95
2022-10-12T20:41:33.365Z,7.94
2022-10-12T20:44:02.804Z,7.95
2022-10-12T20:46:31.662Z,7.93
2022-10-12T20:49:03.765Z,7.91
2022-10-12T20:51:36.996Z,7.88
2022-10-12T20:54:08.919Z,7.84
2022-10-12T20:56:41.552Z,7.75
2022-10-12T20:59:11.441Z,7.65
2022-10-12T21:01:40.147Z,7.60
2022-10-12T21:04:10.356Z,7.59
2022-10-12T21:06:41.446Z,7.59
2022-10-12T21:09:14.839Z,7.60
2022-10-12T21:11:43.925Z,7.60
2022-10-12T21:14:13.950Z,7.60
2022-10-12T21:16:42.702Z,7.60
2022-10-12T21:19:16.257Z,7.58
2022-10-12T21:21:46.752Z,7.56
2022-10-12T21:24:15.612Z,7.53
2022-10-12T21:26:44.915Z,7.49
2022-10-12T21:29:14.076Z,7.46
2022-10-12T21:31:42.789Z,7.41
2022-10-12T21:34:13.687Z,7.36
2022-10-12T21:36:42.443Z,7.32
2022-10-12T21:39:14.320Z,7.27
2022-10-12T21:41:43.720Z,7.22
2022-10-12T21:44:12.719Z,7.18
2022-10-12T21:46:41.495Z,7.15
2022-10-12T21:49:13.016Z,7.13
2022-10-12T21:51:57.355Z,7.09
2022-10-12T21:54:27.958Z,7.07
2022-10-12T21:56:56.667Z,7.08
2022-10-12T21:59:26.768Z,7.09
2022-10-12T22:01:55.442Z,7.09
2022-10-12T22:04:24.348Z,7.09
2022-10-12T22:06:55.111Z,7.08
2022-10-12T22:09:27.177Z,7.06
2022-10-12T22:11:56.172Z,7.04
2022-10-12T22:14:24.902Z,7.00
2022-10-12T22:16:53.695Z,6.96
2022-10-12T22:19:24.861Z,6.89
2022-10-12T22:21:55.535Z,6.84
2022-10-12T22:24:36.116Z,6.82
2022-10-12T22:27:04.824Z,6.81
2022-10-12T22:29:33.713Z,6.80
2022-10-12T22:32:04.084Z,6.79
2022-10-12T22:34:32.835Z,6.77
2022-10-12T22:37:01.593Z,6.72
2022-10-12T22:39:30.472Z,6.68
2022-10-12T22:41:59.149Z,6.66
2022-10-12T22:44:27.838Z,6.58
2022-10-12T22:46:57.374Z,6.49
2022-10-12T22:49:26.392Z,6.40
2022-10-12T22:51:55.063Z,6.32
2022-10-12T22:54:23.836Z,6.27
2022-10-12T22:56:53.027Z,6.22
2022-10-12T22:59:21.703Z,6.18
2022-10-12T23:01:50.388Z,6.15
2022-10-12T23:04:19.080Z,6.13
2022-10-12T23:06:47.963Z,6.10
2022-10-12T23:09:16.676Z,6.07
2022-10-12T23:11:45.445Z,6.03
2022-10-12T23:14:14.141Z,6.02
2022-10-12T23:16:42.794Z,6.00
2022-10-12T23:19:11.537Z,6.00
2022-10-12T23:21:40.384Z,5.97
2022-10-12T23:24:10.476Z,5.91
2022-10-12T23:26:39.120Z,5.86
2022-10-12T23:29:07.812Z,5.84
2022-10-12T23:31:36.974Z,5.83
2022-10-12T23:34:06.591Z,5.81
2022-10-12T23:36:35.620Z,5.82
2022-10-12T23:39:05.685Z,5.81
2022-10-12T23:41:34.780Z,5.81
2022-10-12T23:44:03.924Z,5.84
2022-10-12T23:46:32.798Z,5.85
2022-10-12T23:49:01.530Z,5.86
2022-10-12T23:51:30.418Z,5.89
2022-10-12T23:53:59.227Z,5.93
2022-10-12T23:56:27.959Z,5.93
2022-10-12T23:58:57.244Z,5.91
